sensor_id;sensor_type;location;lat;lon;timestamp;temperature;humidity
13694;DHT22;6919;52.344;14.518;2024-03-07T00:01:40;5.20;99.90
13694;DHT22;6919;52.344;14.518;2024-03-07T00:04:08;5.20;99.90
13694;DHT22;6919;52.344;14.518;2024-03-07T00:06:37;5.10;99.90
13694;DHT22;6919;52.344;14.518;2024-03-07T00:09:07;5.00;99.90
13694;DHT22;6919;52.344;14.518;2024-03-07T00:11:37;5.00;99.90
13694;DHT22;6919;52.344;14.518;2024-03-07T00:14:06;4.90;99.90
13694;DHT22;6919;52.344;14.518;2024-03-07T00:16:34;4.90;99.90
13694;DHT22;6919;52.344;14.518;2024-03-07T00:19:02;4.70;99.90
13694;DHT22;6919;52.344;14.518;2024-03-07T00:21:31;4.60;99.90
13694;DHT22;6919;52.344;14.518;2024-03-07T00:23:59;4.60;99.90
13694;DHT22;6919;52.344;14.518;2024-03-07T00:26:27;4.50;99.90
13694;DHT22;6919;52.344;14.518;2024-03-07T00:28:58;4.50;99.90
13694;DHT22;6919;52.344;14.518;2024-03-07T00:31:26;4.40;99.90
13694;DHT22;6919;52.344;14.518;2024-03-07T00:33:56;4.40;99.90
13694;DHT22;6919;52.344;14.518;2024-03-07T00:36:38;4.30;99.90
13694;DHT22;6919;52.344;14.518;2024-03-07T00:39:07;4.30;99.90
13694;DHT22;6919;52.344;14.518;2024-03-07T00:41:38;4.20;99.90
13694;DHT22;6919;52.344;14.518;2024-03-07T00:44:08;4.20;99.90
13694;DHT22;6919;52.344;14.518;2024-03-07T00:46:37;4.10;99.90
13694;DHT22;6919;52.344;14.518;2024-03-07T00:49:06;4.00;99.90
13694;DHT22;6919;52.344;14.518;2024-03-07T00:51:34;4.00;99.90
13694;DHT22;6919;52.344;14.518;2024-03-07T00:54:04;3.90;99.90
13694;DHT22;6919;52.344;14.518;2024-03-07T00:56:33;3.90;99.90
13694;DHT22;6919;52.344;14.518;2024-03-07T00:59:03;3.80;99.90
13694;DHT22;6919;52.344;14.518;2024-03-07T01:01:33;3.70;99.90
13694;DHT22;6919;52.344;14.518;2024-03-07T01:04:03;3.70;99.90
13694;DHT22;6919;52.344;14.518;2024-03-07T01:06:31;3.60;99.90
13694;DHT22;6919;52.344;14.518;2024-03-07T01:09:00;3.60;99.90
13694;DHT22;6919;52.344;14.518;2024-03-07T01:11:28;3.60;99.90
13694;DHT22;6919;52.344;14.518;2024-03-07T01:13:57;3.50;99.90
13694;DHT22;6919;52.344;14.518;2024-03-07T01:16:25;3.50;99.90
13694;DHT22;6919;52.344;14.518;2024-03-07T01:18:55;3.40;99.90
13694;DHT22;6919;52.344;14.518;2024-03-07T01:21:23;3.40;99.90
13694;DHT22;6919;52.344;14.518;2024-03-07T01:23:52;3.40;99.90
13694;DHT22;6919;52.344;14.518;2024-03-07T01:26:21;3.30;99.90
13694;DHT22;6919;52.344;14.518;2024-03-07T01:28:51;3.30;99.90
13694;DHT22;6919;52.344;14.518;2024-03-07T01:31:21;3.30;99.90
13694;DHT22;6919;52.344;14.518;2024-03-07T01:33:50;3.20;99.90
13694;DHT22;6919;52.344;14.518;2024-03-07T01:36:20;3.20;99.90
13694;DHT22;6919;52.344;14.518;2024-03-07T01:38:48;3.20;99.90
13694;DHT22;6919;52.344;14.518;2024-03-07T01:41:18;3.20;99.90
13694;DHT22;6919;52.344;14.518;2024-03-07T01:43:47;3.10;99.90
13694;DHT22;6919;52.344;14.518;2024-03-07T01:46:15;3.00;99.90
13694;DHT22;6919;52.344;14.518;2024-03-07T01:48:44;3.00;99.90
13694;DHT22;6919;52.344;14.518;2024-03-07T01:51:13;3.00;99.90
13694;DHT22;6919;52.344;14.518;2024-03-07T01:53:44;2.90;99.90
13694;DHT22;6919;52.344;14.518;2024-03-07T01:56:13;2.90;99.90
13694;DHT22;6919;52.344;14.518;2024-03-07T01:58:43;2.80;99.90
13694;DHT22;6919;52.344;14.518;2024-03-07T02:01:14;2.80;99.90
13694;DHT22;6919;52.344;14.518;2024-03-07T02:03:42;2.80;99.90
13694;DHT22;6919;52.344;14.518;2024-03-07T02:06:11;2.80;99.90
13694;DHT22;6919;52.344;14.518;2024-03-07T02:08:39;2.70;99.90
13694;DHT22;6919;52.344;14.518;2024-03-07T02:11:09;2.60;99.90
13694;DHT22;6919;52.344;14.518;2024-03-07T02:13:37;2.60;99.90
13694;DHT22;6919;52.344;14.518;2024-03-07T02:16:06;2.60;99.90
13694;DHT22;6919;52.344;14.518;2024-03-07T02:18:35;2.60;99.90
13694;DHT22;6919;52.344;14.518;2024-03-07T02:21:07;2.50;99.90
13694;DHT22;6919;52.344;14.518;2024-03-07T02:23:38;2.50;99.90
13694;DHT22;6919;52.344;14.518;2024-03-07T02:26:07;2.50;99.90
13694;DHT22;6919;52.344;14.518;2024-03-07T02:28:36;2.40;99.90
13694;DHT22;6919;52.344;14.518;2024-03-07T02:31:04;2.40;99.90
13694;DHT22;6919;52.344;14.518;2024-03-07T02:33:32;2.30;99.90
13694;DHT22;6919;52.344;14.518;2024-03-07T02:36:01;2.30;99.90
13694;DHT22;6919;52.344;14.518;2024-03-07T02:38:31;2.30;99.90
13694;DHT22;6919;52.344;14.518;2024-03-07T02:40:59;2.40;99.90
13694;DHT22;6919;52.344;14.518;2024-03-07T02:43:28;2.40;99.90
13694;DHT22;6919;52.344;14.518;2024-03-07T02:45:56;2.40;99.90
13694;DHT22;6919;52.344;14.518;2024-03-07T02:48:24;2.40;99.90
13694;DHT22;6919;52.344;14.518;2024-03-07T02:50:52;2.40;99.90
13694;DHT22;6919;52.344;14.518;2024-03-07T02:53:21;2.30;99.90
13694;DHT22;6919;52.344;14.518;2024-03-07T02:55:51;2.30;99.90
13694;DHT22;6919;52.344;14.518;2024-03-07T02:58:19;2.20;99.90
13694;DHT22;6919;52.344;14.518;2024-03-07T03:00:47;2.20;99.90
13694;DHT22;6919;52.344;14.518;2024-03-07T03:03:16;2.10;99.90
13694;DHT22;6919;52.344;14.518;2024-03-07T03:05:45;2.10;99.90
13694;DHT22;6919;52.344;14.518;2024-03-07T03:08:13;2.00;99.90
13694;DHT22;6919;52.344;14.518;2024-03-07T03:10:41;2.20;99.90
13694;DHT22;6919;52.344;14.518;2024-03-07T03:13:12;2.10;99.90
13694;DHT22;6919;52.344;14.518;2024-03-07T03:15:42;2.00;99.90
13694;DHT22;6919;52.344;14.518;2024-03-07T03:18:11;2.00;99.90
13694;DHT22;6919;52.344;14.518;2024-03-07T03:20:40;2.00;99.90
13694;DHT22;6919;52.344;14.518;2024-03-07T03:23:09;1.90;99.90
13694;DHT22;6919;52.344;14.518;2024-03-07T03:25:47;1.90;99.90
13694;DHT22;6919;52.344;14.518;2024-03-07T03:28:18;1.90;99.90
13694;DHT22;6919;52.344;14.518;2024-03-07T03:30:48;1.90;99.90
13694;DHT22;6919;52.344;14.518;2024-03-07T03:33:17;1.70;99.90
13694;DHT22;6919;52.344;14.518;2024-03-07T03:35:47;1.70;99.90
13694;DHT22;6919;52.344;14.518;2024-03-07T03:38:16;1.70;99.90
13694;DHT22;6919;52.344;14.518;2024-03-07T03:40:47;1.60;99.90
13694;DHT22;6919;52.344;14.518;2024-03-07T03:43:15;1.50;99.90
13694;DHT22;6919;52.344;14.518;2024-03-07T03:45:45;1.50;99.90
13694;DHT22;6919;52.344;14.518;2024-03-07T03:48:14;1.50;99.90
13694;DHT22;6919;52.344;14.518;2024-03-07T03:50:43;1.40;99.90
13694;DHT22;6919;52.344;14.518;2024-03-07T03:53:13;1.40;99.90
13694;DHT22;6919;52.344;14.518;2024-03-07T03:55:41;1.40;99.90
13694;DHT22;6919;52.344;14.518;2024-03-07T03:58:10;1.30;99.90
13694;DHT22;6919;52.344;14.518;2024-03-07T04:00:39;1.20;99.90
13694;DHT22;6919;52.344;14.518;2024-03-07T04:03:08;1.40;99.90
13694;DHT22;6919;52.344;14.518;2024-03-07T04:05:37;1.20;99.90
13694;DHT22;6919;52.344;14.518;2024-03-07T04:08:05;1.20;99.90
13694;DHT22;6919;52.344;14.518;2024-03-07T04:10:34;1.20;99.90
13694;DHT22;6919;52.344;14.518;2024-03-07T04:13:02;1.10;99.90
13694;DHT22;6919;52.344;14.518;2024-03-07T04:15:31;1.10;99.90
13694;DHT22;6919;52.344;14.518;2024-03-07T04:18:03;1.00;99.90
13694;DHT22;6919;52.344;14.518;2024-03-07T04:20:33;1.00;99.90
13694;DHT22;6919;52.344;14.518;2024-03-07T04:23:02;1.00;99.90
13694;DHT22;6919;52.344;14.518;2024-03-07T04:25:34;0.90;99.90
13694;DHT22;6919;52.344;14.518;2024-03-07T04:28:03;0.90;99.90
13694;DHT22;6919;52.344;14.518;2024-03-07T04:30:32;0.90;99.90
13694;DHT22;6919;52.344;14.518;2024-03-07T04:33:00;0.80;99.90
13694;DHT22;6919;52.344;14.518;2024-03-07T04:35:28;0.80;99.90
13694;DHT22;6919;52.344;14.518;2024-03-07T04:37:59;0.80;99.90
13694;DHT22;6919;52.344;14.518;2024-03-07T04:40:27;0.80;99.90
13694;DHT22;6919;52.344;14.518;2024-03-07T04:42:56;0.80;99.90
13694;DHT22;6919;52.344;14.518;2024-03-07T04:45:24;0.80;99.90
13694;DHT22;6919;52.344;14.518;2024-03-07T04:47:52;0.80;99.90
13694;DHT22;6919;52.344;14.518;2024-03-07T04:50:21;0.70;99.90
13694;DHT22;6919;52.344;14.518;2024-03-07T04:52:49;0.70;99.90
13694;DHT22;6919;52.344;14.518;2024-03-07T04:55:19;0.70;99.90
13694;DHT22;6919;52.344;14.518;2024-03-07T04:57:47;0.60;99.90
13694;DHT22;6919;52.344;14.518;2024-03-07T05:00:15;0.60;99.90
13694;DHT22;6919;52.344;14.518;2024-03-07T05:02:48;0.60;99.90
13694;DHT22;6919;52.344;14.518;2024-03-07T05:05:18;0.60;99.90
13694;DHT22;6919;52.344;14.518;2024-03-07T05:07:50;0.60;99.90
13694;DHT22;6919;52.344;14.518;2024-03-07T05:10:20;0.50;99.90
13694;DHT22;6919;52.344;14.518;2024-03-07T05:12:49;0.50;99.90
13694;DHT22;6919;52.344;14.518;2024-03-07T05:15:17;0.50;99.90
13694;DHT22;6919;52.344;14.518;2024-03-07T05:17:46;0.40;99.90
13694;DHT22;6919;52.344;14.518;2024-03-07T05:20:14;0.40;99.90
13694;DHT22;6919;52.344;14.518;2024-03-07T05:22:43;0.40;99.90
13694;DHT22;6919;52.344;14.518;2024-03-07T05:25:17;0.30;99.90
13694;DHT22;6919;52.344;14.518;2024-03-07T05:27:48;0.40;99.90
13694;DHT22;6919;52.344;14.518;2024-03-07T05:30:17;0.40;99.90
13694;DHT22;6919;52.344;14.518;2024-03-07T05:32:46;0.20;99.90
13694;DHT22;6919;52.344;14.518;2024-03-07T05:35:15;0.20;99.90
13694;DHT22;6919;52.344;14.518;2024-03-07T05:37:47;0.20;99.90
13694;DHT22;6919;52.344;14.518;2024-03-07T05:40:17;0.10;99.90
13694;DHT22;6919;52.344;14.518;2024-03-07T05:42:47;0.10;99.90
13694;DHT22;6919;52.344;14.518;2024-03-07T05:45:15;0.20;99.90
13694;DHT22;6919;52.344;14.518;2024-03-07T05:47:45;0.00;99.90
13694;DHT22;6919;52.344;14.518;2024-03-07T05:50:16;0.00;99.90
13694;DHT22;6919;52.344;14.518;2024-03-07T05:52:46;0.00;99.90
13694;DHT22;6919;52.344;14.518;2024-03-07T05:55:15;0.10;99.90
13694;DHT22;6919;52.344;14.518;2024-03-07T05:57:47;0.10;99.90
13694;DHT22;6919;52.344;14.518;2024-03-07T06:00:16;0.10;99.90
13694;DHT22;6919;52.344;14.518;2024-03-07T06:02:54;0.20;99.90
13694;DHT22;6919;52.344;14.518;2024-03-07T06:05:23;0.20;99.90
13694;DHT22;6919;52.344;14.518;2024-03-07T06:07:51;0.20;99.90
13694;DHT22;6919;52.344;14.518;2024-03-07T06:10:20;0.30;99.90
13694;DHT22;6919;52.344;14.518;2024-03-07T06:12:52;0.20;99.90
13694;DHT22;6919;52.344;14.518;2024-03-07T06:15:24;0.30;99.90
13694;DHT22;6919;52.344;14.518;2024-03-07T06:17:51;0.30;99.90
13694;DHT22;6919;52.344;14.518;2024-03-07T06:20:20;0.40;99.90
13694;DHT22;6919;52.344;14.518;2024-03-07T06:22:51;0.40;99.90
13694;DHT22;6919;52.344;14.518;2024-03-07T06:25:19;0.40;99.90
13694;DHT22;6919;52.344;14.518;2024-03-07T06:28:02;0.40;99.90
13694;DHT22;6919;52.344;14.518;2024-03-07T06:30:38;0.50;99.90
13694;DHT22;6919;52.344;14.518;2024-03-07T06:33:07;0.60;99.90
13694;DHT22;6919;52.344;14.518;2024-03-07T06:35:36;0.60;99.90
13694;DHT22;6919;52.344;14.518;2024-03-07T06:38:06;0.60;99.90
13694;DHT22;6919;52.344;14.518;2024-03-07T06:40:35;0.60;99.90
13694;DHT22;6919;52.344;14.518;2024-03-07T06:43:05;0.60;99.90
13694;DHT22;6919;52.344;14.518;2024-03-07T06:45:34;0.80;99.90
13694;DHT22;6919;52.344;14.518;2024-03-07T06:48:04;0.80;99.90
13694;DHT22;6919;52.344;14.518;2024-03-07T06:50:34;0.90;99.90
13694;DHT22;6919;52.344;14.518;2024-03-07T06:53:05;0.90;99.90
13694;DHT22;6919;52.344;14.518;2024-03-07T06:55:35;0.90;99.90
13694;DHT22;6919;52.344;14.518;2024-03-07T06:58:06;1.00;99.90
13694;DHT22;6919;52.344;14.518;2024-03-07T07:00:34;1.10;99.90
13694;DHT22;6919;52.344;14.518;2024-03-07T07:03:05;1.00;99.90
13694;DHT22;6919;52.344;14.518;2024-03-07T07:05:34;1.10;99.90
13694;DHT22;6919;52.344;14.518;2024-03-07T07:08:04;1.10;99.90
13694;DHT22;6919;52.344;14.518;2024-03-07T07:10:34;1.20;99.90
13694;DHT22;6919;52.344;14.518;2024-03-07T07:13:03;1.30;99.90
13694;DHT22;6919;52.344;14.518;2024-03-07T07:15:33;1.30;99.90
13694;DHT22;6919;52.344;14.518;2024-03-07T07:18:04;1.30;99.90
13694;DHT22;6919;52.344;14.518;2024-03-07T07:20:34;1.40;99.90
13694;DHT22;6919;52.344;14.518;2024-03-07T07:23:03;1.50;99.90
13694;DHT22;6919;52.344;14.518;2024-03-07T07:25:31;1.50;99.90
13694;DHT22;6919;52.344;14.518;2024-03-07T07:28:00;1.50;99.90
13694;DHT22;6919;52.344;14.518;2024-03-07T07:30:33;1.60;99.90
13694;DHT22;6919;52.344;14.518;2024-03-07T07:33:01;1.80;99.90
13694;DHT22;6919;52.344;14.518;2024-03-07T07:35:30;1.80;99.90
13694;DHT22;6919;52.344;14.518;2024-03-07T07:37:59;2.00;99.90
13694;DHT22;6919;52.344;14.518;2024-03-07T07:40:28;2.20;99.90
13694;DHT22;6919;52.344;14.518;2024-03-07T07:42:58;2.40;99.90
13694;DHT22;6919;52.344;14.518;2024-03-07T07:45:28;2.50;99.90
13694;DHT22;6919;52.344;14.518;2024-03-07T07:47:57;2.40;99.90
13694;DHT22;6919;52.344;14.518;2024-03-07T07:50:26;2.40;99.90
13694;DHT22;6919;52.344;14.518;2024-03-07T07:52:56;2.50;99.90
13694;DHT22;6919;52.344;14.518;2024-03-07T07:55:27;2.70;99.90
13694;DHT22;6919;52.344;14.518;2024-03-07T07:57:57;2.70;99.90
13694;DHT22;6919;52.344;14.518;2024-03-07T08:00:28;2.80;99.90
13694;DHT22;6919;52.344;14.518;2024-03-07T08:03:00;2.70;99.90
13694;DHT22;6919;52.344;14.518;2024-03-07T08:05:31;2.80;99.90
13694;DHT22;6919;52.344;14.518;2024-03-07T08:08:02;3.00;99.90
13694;DHT22;6919;52.344;14.518;2024-03-07T08:10:34;3.00;99.90
13694;DHT22;6919;52.344;14.518;2024-03-07T08:13:04;3.10;99.90
13694;DHT22;6919;52.344;14.518;2024-03-07T08:15:34;3.30;99.90
13694;DHT22;6919;52.344;14.518;2024-03-07T08:18:04;3.40;99.90
13694;DHT22;6919;52.344;14.518;2024-03-07T08:20:36;3.70;99.90
13694;DHT22;6919;52.344;14.518;2024-03-07T08:23:05;3.90;99.90
13694;DHT22;6919;52.344;14.518;2024-03-07T08:25:34;3.90;99.90
13694;DHT22;6919;52.344;14.518;2024-03-07T08:28:03;3.80;99.90
13694;DHT22;6919;52.344;14.518;2024-03-07T08:30:32;4.20;99.90
13694;DHT22;6919;52.344;14.518;2024-03-07T08:33:01;4.40;99.90
13694;DHT22;6919;52.344;14.518;2024-03-07T08:35:33;4.30;99.90
13694;DHT22;6919;52.344;14.518;2024-03-07T08:38:02;4.30;99.90
13694;DHT22;6919;52.344;14.518;2024-03-07T08:40:31;4.10;99.90
13694;DHT22;6919;52.344;14.518;2024-03-07T08:43:01;4.10;99.90
13694;DHT22;6919;52.344;14.518;2024-03-07T08:45:31;4.10;99.90
13694;DHT22;6919;52.344;14.518;2024-03-07T08:48:04;4.40;99.90
13694;DHT22;6919;52.344;14.518;2024-03-07T08:50:34;4.50;99.90
13694;DHT22;6919;52.344;14.518;2024-03-07T08:53:05;4.60;99.90
13694;DHT22;6919;52.344;14.518;2024-03-07T08:55:34;4.80;99.90
13694;DHT22;6919;52.344;14.518;2024-03-07T08:58:04;5.00;99.90
13694;DHT22;6919;52.344;14.518;2024-03-07T09:00:35;4.90;99.90
13694;DHT22;6919;52.344;14.518;2024-03-07T09:03:07;5.00;99.90
13694;DHT22;6919;52.344;14.518;2024-03-07T09:05:40;5.10;99.90
13694;DHT22;6919;52.344;14.518;2024-03-07T09:08:09;5.20;99.90
13694;DHT22;6919;52.344;14.518;2024-03-07T09:10:38;5.10;99.90
13694;DHT22;6919;52.344;14.518;2024-03-07T09:13:10;5.30;99.90
13694;DHT22;6919;52.344;14.518;2024-03-07T09:15:38;5.60;99.90
13694;DHT22;6919;52.344;14.518;2024-03-07T09:18:08;5.50;99.90
13694;DHT22;6919;52.344;14.518;2024-03-07T09:20:37;5.50;99.90
13694;DHT22;6919;52.344;14.518;2024-03-07T09:23:06;5.80;99.90
13694;DHT22;6919;52.344;14.518;2024-03-07T09:25:34;6.00;99.90
13694;DHT22;6919;52.344;14.518;2024-03-07T09:28:03;6.30;99.90
13694;DHT22;6919;52.344;14.518;2024-03-07T09:30:33;6.30;99.90
13694;DHT22;6919;52.344;14.518;2024-03-07T09:33:07;6.10;99.90
13694;DHT22;6919;52.344;14.518;2024-03-07T09:35:39;5.90;99.90
13694;DHT22;6919;52.344;14.518;2024-03-07T09:38:07;5.90;98.80
13694;DHT22;6919;52.344;14.518;2024-03-07T09:40:35;6.20;97.90
13694;DHT22;6919;52.344;14.518;2024-03-07T09:43:06;6.40;99.90
13694;DHT22;6919;52.344;14.518;2024-03-07T09:45:38;6.50;78.70
13694;DHT22;6919;52.344;14.518;2024-03-07T09:48:14;6.50;80.20
13694;DHT22;6919;52.344;14.518;2024-03-07T09:50:44;6.40;72.90
13694;DHT22;6919;52.344;14.518;2024-03-07T09:53:19;6.40;77.40
13694;DHT22;6919;52.344;14.518;2024-03-07T09:55:49;6.40;79.80
13694;DHT22;6919;52.344;14.518;2024-03-07T09:58:18;6.40;68.40
13694;DHT22;6919;52.344;14.518;2024-03-07T10:00:49;6.40;73.00
13694;DHT22;6919;52.344;14.518;2024-03-07T10:03:21;6.40;77.20
13694;DHT22;6919;52.344;14.518;2024-03-07T10:05:51;6.40;79.20
13694;DHT22;6919;52.344;14.518;2024-03-07T10:08:21;6.50;76.60
13694;DHT22;6919;52.344;14.518;2024-03-07T10:10:52;6.90;79.00
13694;DHT22;6919;52.344;14.518;2024-03-07T10:13:22;6.90;69.10
13694;DHT22;6919;52.344;14.518;2024-03-07T10:15:52;6.90;62.50
13694;DHT22;6919;52.344;14.518;2024-03-07T10:18:28;7.00;54.60
13694;DHT22;6919;52.344;14.518;2024-03-07T10:20:57;6.80;65.40
13694;DHT22;6919;52.344;14.518;2024-03-07T10:23:27;7.00;68.40
13694;DHT22;6919;52.344;14.518;2024-03-07T10:25:55;7.00;54.20
13694;DHT22;6919;52.344;14.518;2024-03-07T10:28:25;6.90;58.70
13694;DHT22;6919;52.344;14.518;2024-03-07T10:30:54;7.00;57.20
13694;DHT22;6919;52.344;14.518;2024-03-07T10:33:27;7.00;47.00
13694;DHT22;6919;52.344;14.518;2024-03-07T10:36:00;6.90;44.20
13694;DHT22;6919;52.344;14.518;2024-03-07T10:38:28;7.00;43.60
13694;DHT22;6919;52.344;14.518;2024-03-07T10:40:58;7.00;44.20
13694;DHT22;6919;52.344;14.518;2024-03-07T10:43:29;7.00;45.50
13694;DHT22;6919;52.344;14.518;2024-03-07T10:46:09;7.10;42.80
13694;DHT22;6919;52.344;14.518;2024-03-07T10:48:43;7.20;42.90
13694;DHT22;6919;52.344;14.518;2024-03-07T10:51:20;7.00;43.40
13694;DHT22;6919;52.344;14.518;2024-03-07T10:53:59;7.00;40.70
13694;DHT22;6919;52.344;14.518;2024-03-07T10:56:47;7.20;40.00
13694;DHT22;6919;52.344;14.518;2024-03-07T10:59:29;7.30;36.20
13694;DHT22;6919;52.344;14.518;2024-03-07T11:02:10;7.10;35.20
13694;DHT22;6919;52.344;14.518;2024-03-07T11:04:46;7.20;41.60
13694;DHT22;6919;52.344;14.518;2024-03-07T11:07:16;7.40;40.70
13694;DHT22;6919;52.344;14.518;2024-03-07T11:09:45;7.40;37.10
13694;DHT22;6919;52.344;14.518;2024-03-07T11:12:19;7.60;37.70
13694;DHT22;6919;52.344;14.518;2024-03-07T11:14:51;7.30;38.00
13694;DHT22;6919;52.344;14.518;2024-03-07T11:17:22;7.50;38.70
13694;DHT22;6919;52.344;14.518;2024-03-07T11:19:53;7.70;36.50
13694;DHT22;6919;52.344;14.518;2024-03-07T11:22:30;7.90;36.00
13694;DHT22;6919;52.344;14.518;2024-03-07T11:25:04;7.90;32.70
13694;DHT22;6919;52.344;14.518;2024-03-07T11:27:37;7.90;30.80
13694;DHT22;6919;52.344;14.518;2024-03-07T11:30:07;7.60;31.00
13694;DHT22;6919;52.344;14.518;2024-03-07T11:32:38;7.90;29.80
13694;DHT22;6919;52.344;14.518;2024-03-07T11:35:13;7.90;33.30
13694;DHT22;6919;52.344;14.518;2024-03-07T11:37:42;7.90;30.20
13694;DHT22;6919;52.344;14.518;2024-03-07T11:40:42;7.90;30.50
13694;DHT22;6919;52.344;14.518;2024-03-07T11:43:12;7.70;29.70
13694;DHT22;6919;52.344;14.518;2024-03-07T11:45:40;7.70;28.40
13694;DHT22;6919;52.344;14.518;2024-03-07T11:48:12;7.90;29.30
13694;DHT22;6919;52.344;14.518;2024-03-07T11:50:43;7.60;26.40
13694;DHT22;6919;52.344;14.518;2024-03-07T11:53:11;7.50;28.70
13694;DHT22;6919;52.344;14.518;2024-03-07T11:55:40;7.40;26.40
13694;DHT22;6919;52.344;14.518;2024-03-07T11:58:13;7.60;28.20
13694;DHT22;6919;52.344;14.518;2024-03-07T12:00:44;7.70;26.30
13694;DHT22;6919;52.344;14.518;2024-03-07T12:03:14;7.60;26.60
13694;DHT22;6919;52.344;14.518;2024-03-07T12:05:47;7.70;27.90
13694;DHT22;6919;52.344;14.518;2024-03-07T12:08:18;7.90;27.10
13694;DHT22;6919;52.344;14.518;2024-03-07T12:10:49;8.00;25.20
13694;DHT22;6919;52.344;14.518;2024-03-07T12:13:21;7.90;23.40
13694;DHT22;6919;52.344;14.518;2024-03-07T12:15:51;7.70;23.30
13694;DHT22;6919;52.344;14.518;2024-03-07T12:18:22;7.60;24.70
13694;DHT22;6919;52.344;14.518;2024-03-07T12:20:53;7.70;24.70
13694;DHT22;6919;52.344;14.518;2024-03-07T12:23:23;7.80;22.00
13694;DHT22;6919;52.344;14.518;2024-03-07T12:26:00;7.90;23.00
13694;DHT22;6919;52.344;14.518;2024-03-07T12:28:29;8.00;21.10
13694;DHT22;6919;52.344;14.518;2024-03-07T12:31:00;8.00;20.50
13694;DHT22;6919;52.344;14.518;2024-03-07T12:33:31;8.20;22.00
13694;DHT22;6919;52.344;14.518;2024-03-07T12:36:09;8.20;19.20
13694;DHT22;6919;52.344;14.518;2024-03-07T12:38:38;8.20;18.10
13694;DHT22;6919;52.344;14.518;2024-03-07T12:41:10;8.20;19.00
13694;DHT22;6919;52.344;14.518;2024-03-07T12:43:43;8.40;19.50
13694;DHT22;6919;52.344;14.518;2024-03-07T12:46:13;8.20;17.20
13694;DHT22;6919;52.344;14.518;2024-03-07T12:48:43;8.30;17.10
13694;DHT22;6919;52.344;14.518;2024-03-07T12:51:15;8.10;18.20
13694;DHT22;6919;52.344;14.518;2024-03-07T12:53:47;8.20;17.70
13694;DHT22;6919;52.344;14.518;2024-03-07T12:56:16;8.20;17.60
13694;DHT22;6919;52.344;14.518;2024-03-07T12:58:47;8.40;19.50
13694;DHT22;6919;52.344;14.518;2024-03-07T13:01:17;8.50;16.80
13694;DHT22;6919;52.344;14.518;2024-03-07T13:03:47;8.70;17.20
13694;DHT22;6919;52.344;14.518;2024-03-07T13:06:17;8.70;17.20
13694;DHT22;6919;52.344;14.518;2024-03-07T13:08:53;8.80;16.00
13694;DHT22;6919;52.344;14.518;2024-03-07T13:11:23;8.90;15.60
13694;DHT22;6919;52.344;14.518;2024-03-07T13:13:54;8.80;14.50
13694;DHT22;6919;52.344;14.518;2024-03-07T13:16:23;8.80;15.40
13694;DHT22;6919;52.344;14.518;2024-03-07T13:18:57;9.00;15.40
13694;DHT22;6919;52.344;14.518;2024-03-07T13:21:27;9.00;15.40
13694;DHT22;6919;52.344;14.518;2024-03-07T13:23:57;9.40;15.40
13694;DHT22;6919;52.344;14.518;2024-03-07T13:26:28;9.20;13.70
13694;DHT22;6919;52.344;14.518;2024-03-07T13:28:58;9.10;13.30
13694;DHT22;6919;52.344;14.518;2024-03-07T13:31:28;9.30;13.30
13694;DHT22;6919;52.344;14.518;2024-03-07T13:33:56;9.80;11.60
13694;DHT22;6919;52.344;14.518;2024-03-07T13:36:30;10.30;9.50
13694;DHT22;6919;52.344;14.518;2024-03-07T13:38:58;10.50;8.80
13694;DHT22;6919;52.344;14.518;2024-03-07T13:41:26;10.90;8.10
13694;DHT22;6919;52.344;14.518;2024-03-07T13:43:55;11.30;6.80
13694;DHT22;6919;52.344;14.518;2024-03-07T13:46:26;11.10;6.00
13694;DHT22;6919;52.344;14.518;2024-03-07T13:48:55;12.10;6.40
13694;DHT22;6919;52.344;14.518;2024-03-07T13:51:35;11.30;4.80
13694;DHT22;6919;52.344;14.518;2024-03-07T13:54:04;11.40;4.50
13694;DHT22;6919;52.344;14.518;2024-03-07T13:57:01;11.50;4.50
13694;DHT22;6919;52.344;14.518;2024-03-07T14:00:13;11.60;3.50
13694;DHT22;6919;52.344;14.518;2024-03-07T14:03:17;11.70;2.60
13694;DHT22;6919;52.344;14.518;2024-03-07T14:06:02;12.20;2.50
13694;DHT22;6919;52.344;14.518;2024-03-07T14:09:25;11.80;1.90
13694;DHT22;6919;52.344;14.518;2024-03-07T14:12:32;11.60;2.20
13694;DHT22;6919;52.344;14.518;2024-03-07T14:15:42;11.80;2.20
13694;DHT22;6919;52.344;14.518;2024-03-07T14:22:30;12.30;1.00
13694;DHT22;6919;52.344;14.518;2024-03-07T14:25:37;11.90;1.00
13694;DHT22;6919;52.344;14.518;2024-03-07T14:28:33;11.50;1.00
13694;DHT22;6919;52.344;14.518;2024-03-07T14:31:16;11.30;1.50
13694;DHT22;6919;52.344;14.518;2024-03-07T14:34:08;11.30;1.30
13694;DHT22;6919;52.344;14.518;2024-03-07T14:36:44;11.50;1.30
13694;DHT22;6919;52.344;14.518;2024-03-07T14:39:16;11.90;1.50
13694;DHT22;6919;52.344;14.518;2024-03-07T14:41:52;11.80;1.30
13694;DHT22;6919;52.344;14.518;2024-03-07T14:44:25;11.90;1.00
13694;DHT22;6919;52.344;14.518;2024-03-07T14:46:58;11.40;1.00
13694;DHT22;6919;52.344;14.518;2024-03-07T14:49:33;11.30;1.30
13694;DHT22;6919;52.344;14.518;2024-03-07T14:52:03;11.50;1.00
13694;DHT22;6919;52.344;14.518;2024-03-07T14:54:38;11.80;1.00
13694;DHT22;6919;52.344;14.518;2024-03-07T14:57:09;11.90;1.00
13694;DHT22;6919;52.344;14.518;2024-03-07T14:59:38;11.80;1.00
13694;DHT22;6919;52.344;14.518;2024-03-07T15:02:09;11.50;1.00
13694;DHT22;6919;52.344;14.518;2024-03-07T15:04:38;11.60;1.00
13694;DHT22;6919;52.344;14.518;2024-03-07T15:07:08;11.90;1.00
13694;DHT22;6919;52.344;14.518;2024-03-07T15:09:36;12.20;1.00
13694;DHT22;6919;52.344;14.518;2024-03-07T15:12:06;11.10;1.00
13694;DHT22;6919;52.344;14.518;2024-03-07T15:14:35;10.70;1.00
13694;DHT22;6919;52.344;14.518;2024-03-07T15:17:07;10.60;1.00
13694;DHT22;6919;52.344;14.518;2024-03-07T15:19:36;10.40;1.00
13694;DHT22;6919;52.344;14.518;2024-03-07T15:22:04;10.60;1.00
13694;DHT22;6919;52.344;14.518;2024-03-07T15:24:34;10.90;1.00
13694;DHT22;6919;52.344;14.518;2024-03-07T15:27:04;10.50;1.00
13694;DHT22;6919;52.344;14.518;2024-03-07T15:29:34;10.40;1.00
13694;DHT22;6919;52.344;14.518;2024-03-07T15:32:04;10.00;1.00
13694;DHT22;6919;52.344;14.518;2024-03-07T15:34:37;9.10;2.80
13694;DHT22;6919;52.344;14.518;2024-03-07T15:37:05;8.60;4.90
13694;DHT22;6919;52.344;14.518;2024-03-07T15:39:34;8.10;5.90
13694;DHT22;6919;52.344;14.518;2024-03-07T15:42:06;7.90;6.70
13694;DHT22;6919;52.344;14.518;2024-03-07T15:44:39;7.70;7.60
13694;DHT22;6919;52.344;14.518;2024-03-07T15:47:11;7.50;8.10
13694;DHT22;6919;52.344;14.518;2024-03-07T15:49:40;7.50;8.60
13694;DHT22;6919;52.344;14.518;2024-03-07T15:52:08;7.50;8.40
13694;DHT22;6919;52.344;14.518;2024-03-07T15:54:40;7.30;8.90
13694;DHT22;6919;52.344;14.518;2024-03-07T15:57:09;7.30;9.80
13694;DHT22;6919;52.344;14.518;2024-03-07T15:59:43;7.20;10.50
13694;DHT22;6919;52.344;14.518;2024-03-07T16:02:12;7.10;10.40
13694;DHT22;6919;52.344;14.518;2024-03-07T16:04:41;7.10;10.30
13694;DHT22;6919;52.344;14.518;2024-03-07T16:07:10;6.90;10.80
13694;DHT22;6919;52.344;14.518;2024-03-07T16:09:38;7.20;11.20
13694;DHT22;6919;52.344;14.518;2024-03-07T16:12:07;6.90;11.30
13694;DHT22;6919;52.344;14.518;2024-03-07T16:14:37;6.80;12.10
13694;DHT22;6919;52.344;14.518;2024-03-07T16:17:06;6.70;12.00